Leyba, New Mexico
Current Conditions -  °F | °C
As of 8:53 AM on Saturday 25 Oct 2014 (Local Time) from KCQC Reporting Station
Clear Clear  
Wind Chill: 15°   Ceiling: Unl
Heat Index: 15°   Visibility: 10mi
Dew Point: -4°   Wind: 14mph
Humidity: 27%   Direction: 300°WNW
Pressure: 30.36"   Gusts: NA
Location:  35.2352°N, 105.52°W
Report Text: KCQC 251453Z AUTO 30012KT 10SM CLR 15/M04 A3036 RMK AO2 SLP213 T01501039 53007
Loading
Personal Weather Stations






























Interactive Weather Map
Tropical Storm Tracking
New forecast layout! Learn more

10-Day Weather Forecast

Advertisements
Track Severe Weather on mobile